Time;durP1;ratioP1;P1;durP2;ratioP2;P2;SDS_P1;SDS_P2;PMS_P1;PMS_P2;Temp;Humidity;BMP_temperature;BMP_pressure;BME280_temperature;BME280_humidity;BME280_pressure;Samples;Min_cycle;Max_cycle;Signal;HPM_P1;HPM_P2
2020/12/24 00:01:40;;;;;;;25.77;4.68;;;;;;;11.06;68.12;100203.75;4966874;28;20174;-63
2020/12/24 00:04:07;;;;;;;14.77;3.17;;;;;;;11.23;67.97;100189.09;4953133;28;20048;-64
2020/12/24 00:06:37;;;;;;;26.25;3.63;;;;;;;11.02;68.35;100193.69;4970953;28;20137;-63
2020/12/24 00:09:04;;;;;;;17.73;2.67;;;;;;;11.01;68.86;100190.16;4955949;29;20062;-63
2020/12/24 00:11:35;;;;;;;23.67;3.35;;;;;;;11.19;67.93;100186.19;4939473;29;20059;-66
2020/12/24 00:14:02;;;;;;;19.80;3.20;;;;;;;11.19;68.21;100180.66;4956170;29;20055;-64
2020/12/24 00:16:30;;;;;;;20.15;3.50;;;;;;;11.26;67.98;100183.72;4956385;29;20051;-62
2020/12/24 00:18:57;;;;;;;19.92;3.35;;;;;;;11.55;66.21;100171.91;4956109;29;20503;-64
2020/12/24 00:21:23;;;;;;;22.08;2.85;;;;;;;11.23;67.30;100170.59;4955306;29;20051;-66
2020/12/24 00:23:50;;;;;;;21.23;3.83;;;;;;;11.02;68.38;100179.91;4957042;28;20114;-64
2020/12/24 00:26:17;;;;;;;19.52;3.83;;;;;;;11.05;68.81;100166.28;4946930;28;671975;-62
2020/12/24 00:28:44;;;;;;;20.83;2.90;;;;;;;11.12;68.84;100163.84;4977088;28;20051;-66
2020/12/24 00:31:11;;;;;;;21.23;3.25;;;;;;;11.11;69.26;100167.75;4991355;28;20059;-66
2020/12/24 00:33:38;;;;;;;21.02;3.38;;;;;;;10.93;69.64;100166.16;4994835;28;20054;-67
2020/12/24 00:36:07;;;;;;;19.25;3.42;;;;;;;10.85;70.40;100174.47;4982899;28;20062;-65
2020/12/24 00:43:03;;;;;;;19.55;2.60;;;;;;;10.71;71.70;100144.38;4976457;28;20054;-66
2020/12/24 00:45:32;;;;;;;17.27;2.60;;;;;;;10.86;71.69;100162.31;4976760;28;20402;-66
2020/12/24 00:48:02;;;;;;;18.80;3.35;;;;;;;10.85;71.45;100149.66;4977287;28;20055;-65
2020/12/24 00:50:33;;;;;;;23.33;3.75;;;;;;;11.02;70.06;100155.94;5006308;28;20407;-64
2020/12/24 00:57:29;;;;;;;19.00;3.15;;;;;;;10.57;71.69;100162.22;4975908;28;20055;-65
2020/12/24 00:59:57;;;;;;;13.77;2.60;;;;;;;10.53;72.56;100155.75;4991439;28;20054;-67
2020/12/24 01:02:23;;;;;;;15.63;2.70;;;;;;;10.56;72.95;100160.59;4976456;28;20066;-67
2020/12/24 01:04:50;;;;;;;21.33;3.22;;;;;;;10.41;74.27;100161.91;4975468;28;20505;-64
2020/12/24 01:11:57;;;;;;;9.82;2.05;;;;;;;10.64;73.33;100148.75;4975915;28;20046;-69
2020/12/24 01:14:24;;;;;;;17.80;2.70;;;;;;;10.73;73.49;100155.06;4975083;28;20051;-66
2020/12/24 01:16:51;;;;;;;11.55;2.03;;;;;;;10.50;73.76;100145.38;4976212;28;20055;-65
2020/12/24 01:19:21;;;;;;;15.52;1.98;;;;;;;10.33;74.40;100154.47;4975798;28;20062;-65
2020/12/24 01:21:49;;;;;;;17.98;2.42;;;;;;;10.41;74.73;100156.41;4975845;28;20042;-64
2020/12/24 01:24:16;;;;;;;11.27;2.00;;;;;;;10.41;75.05;100144.59;4975318;28;20348;-64
2020/12/24 01:26:49;;;;;;;11.02;1.70;;;;;;;10.59;74.53;100149.75;4975341;28;20054;-65
2020/12/24 01:29:16;;;;;;;10.98;1.75;;;;;;;10.80;73.39;100155.34;4975753;28;20046;-63
2020/12/24 01:31:52;;;;;;;8.35;1.42;;;;;;;10.47;74.31;100148.78;4975889;28;20065;-66
2020/12/24 01:34:24;;;;;;;13.65;2.08;;;;;;;10.32;75.14;100143.81;4974728;28;20055;-61
2020/12/24 01:36:52;;;;;;;12.60;1.70;;;;;;;10.59;74.87;100159.94;4975713;28;20058;-64
2020/12/24 01:39:19;;;;;;;9.05;1.60;;;;;;;10.18;75.46;100160.50;4975788;28;20051;-66
2020/12/24 01:41:47;;;;;;;12.00;1.73;;;;;;;10.22;76.23;100147.69;4975576;28;20054;-64
2020/12/24 01:44:14;;;;;;;8.25;1.38;;;;;;;10.27;76.25;100168.75;4975772;28;20062;-63
2020/12/24 01:46:41;;;;;;;6.47;1.50;;;;;;;10.55;75.74;100170.00;4976290;28;20055;-64
2020/12/24 01:49:19;;;;;;;7.15;1.27;;;;;;;10.46;75.23;100156.22;4975773;28;20364;-63
2020/12/24 01:56:16;;;;;;;5.20;1.15;;;;;;;10.26;76.89;100170.69;4953864;29;20059;-62
2020/12/24 01:58:59;;;;;;;12.52;1.75;;;;;;;10.14;77.24;100178.78;4953926;29;20553;-63
2020/12/24 02:01:26;;;;;;;8.82;1.27;;;;;;;10.25;78.19;100180.09;4953539;29;20055;-66
2020/12/24 02:03:53;;;;;;;5.72;0.90;;;;;;;10.40;76.80;100168.56;4953761;29;20062;-62
2020/12/24 02:06:21;;;;;;;8.95;1.38;;;;;;;10.45;77.24;100160.13;4937514;29;20043;-66
2020/12/24 02:13:26;;;;;;;8.88;1.27;;;;;;;10.45;77.86;100165.63;4953373;29;20083;-62
2020/12/24 02:15:53;;;;;;;7.22;0.98;;;;;;;10.42;76.86;100180.06;4953350;29;20062;-65
2020/12/24 02:18:24;;;;;;;4.70;1.00;;;;;;;10.21;76.99;100184.59;4953055;29;20151;-63
2020/12/24 02:20:51;;;;;;;6.68;1.70;;;;;;;10.36;77.94;100184.09;4953290;29;20055;-64
2020/12/24 02:28:08;;;;;;;3.53;0.63;;;;;;;10.28;78.61;100187.69;4933717;29;20051;-63
2020/12/24 02:30:36;;;;;;;5.03;0.85;;;;;;;10.31;78.77;100205.47;4933986;28;20519;-65
2020/12/24 02:33:04;;;;;;;4.68;1.00;;;;;;;10.38;78.39;100198.34;4955678;29;20055;-64
2020/12/24 02:35:34;;;;;;;6.90;1.00;;;;;;;10.41;78.61;100197.69;4956207;28;20070;-62
2020/12/24 02:42:29;;;;;;;3.65;0.60;;;;;;;10.32;77.98;100204.34;4954740;29;20045;-62
2020/12/24 02:44:56;;;;;;;1.98;0.40;;;;;;;10.19;78.72;100195.94;4954566;29;20047;-63
2020/12/24 02:47:23;;;;;;;4.68;1.17;;;;;;;10.24;79.09;100197.72;4957288;28;20066;-63
2020/12/24 02:49:57;;;;;;;3.25;0.40;;;;;;;10.23;79.76;100204.38;4955443;28;20054;-62
2020/12/24 02:52:25;;;;;;;1.92;0.60;;;;;;;10.33;79.27;100206.78;4954917;29;20059;-62
2020/12/24 02:54:52;;;;;;;3.58;1.48;;;;;;;10.38;79.26;100209.38;4954826;29;20055;-70
2020/12/24 02:57:19;;;;;;;3.63;0.60;;;;;;;10.22;79.35;100218.44;4953544;29;20380;-73
2020/12/24 03:00:06;;;;;;;4.80;0.80;;;;;;;10.20;80.66;100225.06;4936538;29;20047;-72
2020/12/24 03:02:34;;;;;;;2.05;0.70;;;;;;;10.12;79.91;100222.31;4968814;28;20455;-65
2020/12/24 03:05:03;;;;;;;3.35;0.47;;;;;;;10.22;80.08;100229.47;4954726;29;20047;-71
2020/12/24 03:07:30;;;;;;;3.13;0.50;;;;;;;10.23;80.43;100228.31;4967855;28;20062;-71
2020/12/24 03:09:57;;;;;;;3.38;0.50;;;;;;;10.00;80.85;100233.13;4954849;29;20055;-73
2020/12/24 03:12:25;;;;;;;1.73;0.60;;;;;;;10.05;80.79;100228.28;4954466;29;20513;-69
2020/12/24 03:14:52;;;;;;;2.50;0.40;;;;;;;10.03;81.26;100235.22;4955913;28;20487;-74
2020/12/24 03:17:20;;;;;;;0.98;0.38;;;;;;;10.16;80.94;100237.06;4955067;28;20054;-68
2020/12/24 03:19:47;;;;;;;0.95;0.30;;;;;;;10.33;79.93;100237.06;4955014;28;20403;-74
2020/12/24 03:22:14;;;;;;;3.22;0.70;;;;;;;10.06;81.30;100238.13;4969217;28;20062;-72
2020/12/24 03:24:41;;;;;;;1.75;0.40;;;;;;;10.12;81.55;100239.66;4954074;29;20075;-72
2020/12/24 03:27:08;;;;;;;2.13;0.30;;;;;;;10.16;81.92;100245.31;4968948;28;20399;-74
2020/12/24 03:29:37;;;;;;;2.80;0.40;;;;;;;9.88;81.83;100243.94;4973663;28;20051;-70
2020/12/24 03:32:04;;;;;;;5.78;0.68;;;;;;;9.98;82.28;100249.94;4974043;28;20520;-74
2020/12/24 03:34:31;;;;;;;1.35;0.30;;;;;;;9.98;82.50;100258.19;4974308;28;20055;-71
2020/12/24 03:36:58;;;;;;;1.95;0.30;;;;;;;10.03;81.93;100263.53;4973850;28;20046;-73
2020/12/24 03:39:25;;;;;;;1.80;0.32;;;;;;;10.12;81.78;100267.16;4974043;28;20070;-63
2020/12/24 03:41:52;;;;;;;1.73;0.20;;;;;;;10.03;82.43;100273.72;4977834;28;20058;-75
2020/12/24 03:44:18;;;;;;;0.93;0.30;;;;;;;9.98;82.76;100274.72;4976904;28;20047;-73
2020/12/24 03:46:48;;;;;;;1.80;0.40;;;;;;;10.00;83.15;100283.47;4977804;28;20055;-73
2020/12/24 03:49:15;;;;;;;0.40;0.20;;;;;;;10.12;82.36;100280.91;4977123;28;20062;-65
2020/12/24 03:51:42;;;;;;;1.35;0.20;;;;;;;10.23;82.16;100291.63;4977554;28;20055;-64
2020/12/24 03:58:33;;;;;;;0.40;0.20;;;;;;;10.10;82.91;100310.69;4975606;28;20042;-64
2020/12/24 04:00:59;;;;;;;0.50;0.20;;;;;;;10.11;83.01;100312.31;4977015;28;20062;-63
2020/12/24 04:03:26;;;;;;;1.67;0.30;;;;;;;10.21;82.34;100319.47;4977409;28;20498;-67
2020/12/24 04:05:53;;;;;;;3.28;0.38;;;;;;;10.20;82.37;100315.06;4977141;28;20042;-63
2020/12/24 04:08:23;;;;;;;1.15;0.30;;;;;;;10.33;82.32;100313.31;4976799;28;20062;-64
2020/12/24 04:10:50;;;;;;;1.45;0.30;;;;;;;10.24;82.71;100321.56;4976993;28;20053;-67
2020/12/24 04:13:17;;;;;;;1.63;0.40;;;;;;;10.47;82.63;100327.75;4976543;28;20059;-65
2020/12/24 04:15:44;;;;;;;1.15;0.28;;;;;;;10.29;82.35;100324.16;4977320;28;20486;-64
2020/12/24 04:18:11;;;;;;;0.10;0.10;;;;;;;10.06;83.11;100334.44;4977036;28;20167;-64
2020/12/24 04:20:57;;;;;;;0.85;0.32;;;;;;;9.91;84.81;100342.31;4972539;28;20051;-64
2020/12/24 04:23:24;;;;;;;1.08;0.20;;;;;;;9.94;84.96;100333.41;4976794;28;20051;-64
2020/12/24 04:25:53;;;;;;;0.90;0.30;;;;;;;10.04;84.86;100344.94;4977129;28;20055;-68
2020/12/24 04:28:20;;;;;;;0.80;0.25;;;;;;;9.94;85.45;100350.75;4976729;28;20047;-67
2020/12/24 04:30:47;;;;;;;0.93;0.35;;;;;;;9.96;85.75;100358.69;4976849;28;20400;-63
2020/12/24 04:33:14;;;;;;;2.10;0.40;;;;;;;10.04;85.56;100355.97;4976432;28;20420;-64
2020/12/24 04:35:43;;;;;;;0.75;0.30;;;;;;;10.05;85.66;100367.78;4976678;28;20054;-65
2020/12/24 04:38:10;;;;;;;0.38;0.30;;;;;;;9.96;85.94;100381.50;4976564;28;20058;-65
2020/12/24 04:45:17;;;;;;;2.22;0.60;;;;;;;9.38;89.20;100397.34;4976580;28;20050;-65
2020/12/24 04:47:44;;;;;;;2.08;0.80;;;;;;;9.17;91.45;100400.94;4976617;28;20427;-64
2020/12/24 04:50:13;;;;;;;0.30;0.30;;;;;;;8.90;93.35;100405.41;4975103;28;20054;-67
2020/12/24 04:52:40;;;;;;;1.42;0.40;;;;;;;8.82;94.87;100408.88;4976090;28;20050;-64
2020/12/24 04:55:10;;;;;;;1.65;0.40;;;;;;;8.93;94.71;100410.25;5006239;28;20061;-63
2020/12/24 04:57:37;;;;;;;1.17;0.40;;;;;;;9.15;94.49;100414.16;4976418;28;20402;-63
2020/12/24 05:00:03;;;;;;;1.38;0.30;;;;;;;8.81;95.52;100412.75;4976146;28;20517;-68
2020/12/24 05:02:30;;;;;;;0.77;0.22;;;;;;;9.02;95.53;100422.16;4975079;28;20047;-63
2020/12/24 05:05:03;;;;;;;1.67;0.22;;;;;;;8.88;95.75;100432.34;4976588;28;20059;-68
2020/12/24 05:07:30;;;;;;;0.80;0.30;;;;;;;9.12;95.41;100429.31;4976201;28;20421;-65
2020/12/24 05:09:57;;;;;;;0.85;0.30;;;;;;;9.30;93.29;100444.03;4959065;28;20047;-63
2020/12/24 05:12:31;;;;;;;0.60;0.32;;;;;;;9.13;92.39;100441.97;4975717;28;20055;-62
2020/12/24 05:15:01;;;;;;;1.85;0.60;;;;;;;8.86;92.06;100442.84;4974256;28;20058;-62
2020/12/24 05:17:30;;;;;;;1.25;0.50;;;;;;;8.98;91.67;100447.78;4976204;28;20062;-63
2020/12/24 05:20:05;;;;;;;0.73;0.50;;;;;;;8.77;92.08;100458.41;4976166;28;20046;-65
2020/12/24 05:22:35;;;;;;;1.58;0.60;;;;;;;8.78;92.68;100460.06;4976010;28;20069;-66
2020/12/24 05:25:10;;;;;;;2.00;1.10;;;;;;;8.95;91.51;100459.41;4978043;28;20070;-68
2020/12/24 05:27:38;;;;;;;2.10;0.80;;;;;;;9.02;91.68;100465.28;4975914;28;20127;-64
2020/12/24 05:30:05;;;;;;;1.10;0.70;;;;;;;9.19;90.74;100468.19;4990104;28;20066;-68
2020/12/24 05:32:32;;;;;;;2.05;0.65;;;;;;;9.07;89.93;100471.47;4975756;28;20054;-66
2020/12/24 05:35:05;;;;;;;2.17;1.02;;;;;;;9.05;90.15;100473.72;4975384;28;20050;-64
2020/12/24 05:37:32;;;;;;;2.13;0.93;;;;;;;9.05;89.53;100479.22;4975984;28;20387;-65
2020/12/24 05:40:19;;;;;;;1.30;1.00;;;;;;;8.90;89.50;100485.06;4975605;28;20051;-63
2020/12/24 05:42:52;;;;;;;1.70;0.93;;;;;;;8.93;89.28;100483.59;4975361;28;20055;-63
2020/12/24 05:45:21;;;;;;;1.60;1.00;;;;;;;8.96;89.11;100492.03;4976378;28;20054;-64
2020/12/24 05:48:09;;;;;;;1.37;0.90;;;;;;;9.01;87.59;100491.13;4975698;28;20050;-63
2020/12/24 05:50:37;;;;;;;2.38;0.90;;;;;;;9.37;87.20;100485.63;4975479;28;20051;-63
2020/12/24 05:53:11;;;;;;;4.07;1.30;;;;;;;8.78;87.89;100503.16;4990537;28;20074;-62
2020/12/24 05:55:41;;;;;;;2.67;1.30;;;;;;;8.81;88.65;100499.81;4974882;28;20055;-63
2020/12/24 05:58:08;;;;;;;2.97;1.10;;;;;;;8.95;87.05;100506.91;4973666;28;20537;-63
2020/12/24 06:00:39;;;;;;;;;;;;;;;8.81;87.20;100516.28;4975440;28;20047;-64
2020/12/24 06:03:15;;;;;;;2.90;1.40;;;;;;;8.64;87.76;100510.59;4974132;28;19929;-65
2020/12/24 06:05:58;;;;;;;3.00;1.20;;;;;;;8.65;86.74;100507.53;4975017;28;20051;-65
2020/12/24 06:08:27;;;;;;;2.22;1.10;;;;;;;8.66;87.14;100522.09;4974363;28;20063;-65
2020/12/24 06:11:04;;;;;;;2.88;1.50;;;;;;;8.79;86.89;100526.75;4974039;28;20509;-65
2020/12/24 06:13:44;;;;;;;2.67;1.52;;;;;;;8.83;86.08;100528.59;4975467;28;20062;-67
2020/12/24 06:16:12;;;;;;;3.83;1.20;;;;;;;9.04;84.97;100535.28;4974882;28;20054;-65
2020/12/24 06:18:41;;;;;;;1.83;1.10;;;;;;;9.02;84.43;100540.28;4989089;28;20051;-66
2020/12/24 06:21:18;;;;;;;2.45;1.10;;;;;;;8.68;84.69;100544.56;4974655;28;20046;-68
2020/12/24 06:23:47;;;;;;;2.42;1.10;;;;;;;8.91;84.19;100546.28;4974574;28;20059;-68
2020/12/24 06:26:27;;;;;;;2.30;1.10;;;;;;;8.78;84.20;100552.59;4973132;28;20062;-63
2020/12/24 06:28:58;;;;;;;2.60;1.42;;;;;;;8.50;85.26;100556.44;4974297;28;20047;-67
2020/12/24 06:31:30;;;;;;;3.03;1.40;;;;;;;8.61;86.09;100553.19;4974688;28;20042;-64
2020/12/24 06:33:57;;;;;;;2.75;1.58;;;;;;;8.97;85.06;100554.13;4989853;28;20066;-67
2020/12/24 06:36:35;;;;;;;3.72;1.70;;;;;;;8.80;84.56;100566.84;4974662;28;20039;-64
2020/12/24 06:39:03;;;;;;;4.38;1.75;;;;;;;8.67;84.94;100565.72;4974742;28;20402;-64
2020/12/24 06:41:37;;;;;;;3.35;1.80;;;;;;;8.65;85.43;100572.63;4974912;28;20058;-61
2020/12/24 06:44:05;;;;;;;5.20;1.92;;;;;;;8.59;86.03;100577.41;4974061;28;20372;-67
2020/12/24 06:46:57;;;;;;;3.55;1.85;;;;;;;8.92;84.84;100583.63;4973245;28;20394;-65
2020/12/24 06:49:33;;;;;;;3.95;2.03;;;;;;;8.79;84.17;100582.50;4973867;28;20055;-63
2020/12/24 06:52:02;;;;;;;3.63;1.40;;;;;;;8.76;84.81;100588.59;4973805;28;20416;-64
2020/12/24 06:54:29;;;;;;;2.78;1.50;;;;;;;8.89;84.46;100587.78;4974125;28;20405;-65
2020/12/24 06:57:24;;;;;;;3.95;1.60;;;;;;;8.82;84.16;100598.34;4974290;28;20502;-63
2020/12/24 07:00:20;;;;;;;3.95;1.67;;;;;;;8.82;84.00;100597.56;4973415;28;20380;-63
2020/12/24 07:02:48;;;;;;;5.28;1.50;;;;;;;9.02;83.76;100605.38;4974008;28;20061;-70
2020/12/24 07:05:43;;;;;;;6.18;1.80;;;;;;;9.20;82.10;100609.16;4974268;28;20047;-60
2020/12/24 07:08:33;;;;;;;9.00;1.60;;;;;;;9.21;82.06;100622.56;4988953;28;20074;-64
2020/12/24 07:15:21;;;;;;;5.45;1.70;;;;;;;9.18;82.23;100625.94;4972430;28;20375;-62
2020/12/24 07:17:50;;;;;;;4.40;2.10;;;;;;;8.88;81.86;100632.03;4974625;28;20051;-64
2020/12/24 07:20:18;;;;;;;4.50;2.28;;;;;;;8.78;83.50;100635.81;4957130;28;20070;-70
2020/12/24 07:23:02;;;;;;;5.53;2.20;;;;;;;8.65;83.74;100639.34;4974266;28;20476;-64
2020/12/24 07:30:08;;;;;;;5.03;1.92;;;;;;;8.76;84.84;100662.75;4955377;28;20051;-66
2020/12/24 07:32:37;;;;;;;6.35;2.58;;;;;;;8.76;84.60;100673.75;4954321;29;20055;-72
2020/12/24 07:35:04;;;;;;;8.07;2.80;;;;;;;8.65;85.73;100677.78;4952540;29;20522;-69
2020/12/24 07:37:32;;;;;;;5.63;2.60;;;;;;;8.71;85.59;100675.75;4954084;29;20487;-70
2020/12/24 07:39:59;;;;;;;6.35;3.15;;;;;;;8.68;85.35;100684.59;4968919;28;20074;-75
2020/12/24 07:42:26;;;;;;;6.60;3.25;;;;;;;8.54;86.54;100681.00;4956754;28;20070;-73
2020/12/24 07:44:59;;;;;;;6.93;3.03;;;;;;;8.85;85.96;100676.59;4954730;28;20058;-71
2020/12/24 07:47:26;;;;;;;11.07;3.40;;;;;;;8.84;85.20;100681.25;4954135;29;20066;-68
2020/12/24 07:49:53;;;;;;;7.90;2.90;;;;;;;8.80;85.43;100691.22;4953270;29;20063;-65
2020/12/24 07:52:20;;;;;;;5.95;2.78;;;;;;;8.55;86.29;100688.09;4954415;29;20056;-63
2020/12/24 07:54:47;;;;;;;11.30;3.65;;;;;;;8.53;86.99;100693.09;4954684;28;20051;-69
2020/12/24 07:57:21;;;;;;;10.25;3.90;;;;;;;8.64;86.72;100697.28;4969586;28;20052;-63
2020/12/24 07:59:48;;;;;;;8.10;3.80;;;;;;;8.52;87.05;100699.69;4954752;29;20530;-66
2020/12/24 08:02:21;;;;;;;9.10;3.33;;;;;;;8.72;86.11;100704.81;4967745;28;20490;-72
2020/12/24 08:04:53;;;;;;;7.05;3.92;;;;;;;8.52;85.80;100702.44;4954635;29;20062;-68
2020/12/24 08:07:23;;;;;;;7.10;3.38;;;;;;;8.61;86.32;100704.19;4954236;28;20051;-64
2020/12/24 08:09:50;;;;;;;10.05;3.70;;;;;;;8.87;85.99;100713.59;4954271;28;20055;-63
2020/12/24 08:12:23;;;;;;;7.85;3.70;;;;;;;8.80;85.68;100718.69;4938179;29;20062;-65
2020/12/24 08:14:57;;;;;;;8.35;3.70;;;;;;;8.87;84.72;100721.06;4955142;28;20051;-62
2020/12/24 08:17:30;;;;;;;13.20;4.95;;;;;;;8.68;85.55;100729.31;4954705;28;20058;-67
2020/12/24 08:20:08;;;;;;;8.13;4.25;;;;;;;8.66;85.83;100725.28;4968214;28;20051;-66
2020/12/24 08:22:45;;;;;;;8.38;3.70;;;;;;;8.79;85.63;100735.47;4966904;28;20408;-61
2020/12/24 08:25:15;;;;;;;10.82;3.50;;;;;;;8.70;86.79;100740.84;4969558;28;20515;-63
2020/12/24 08:27:43;;;;;;;11.02;4.20;;;;;;;8.57;87.33;100741.63;4958345;28;20055;-62
2020/12/24 08:30:14;;;;;;;9.75;3.70;;;;;;;8.65;87.32;100751.91;4991210;28;20070;-66
2020/12/24 08:32:41;;;;;;;10.82;3.80;;;;;;;8.39;88.59;100761.66;4990906;28;20078;-63
2020/12/24 08:35:12;;;;;;;10.82;3.88;;;;;;;8.44;89.56;100766.28;4978783;28;20379;-66
2020/12/24 08:37:40;;;;;;;7.93;3.50;;;;;;;8.48;88.58;100772.78;4976817;28;20046;-72
2020/12/24 08:40:26;;;;;;;10.00;4.05;;;;;;;8.20;90.45;100780.03;4976256;28;20055;-71
2020/12/24 08:42:59;;;;;;;13.23;4.10;;;;;;;8.11;89.70;100809.22;4976517;28;20059;-69
2020/12/24 08:45:27;;;;;;;7.90;3.47;;;;;;;8.11;88.81;100819.41;4976775;28;20416;-68
2020/12/24 08:47:53;;;;;;;6.35;2.35;;;;;;;8.24;87.40;100848.88;4976359;28;20402;-68
2020/12/24 08:50:34;;;;;;;7.80;2.42;;;;;;;8.32;83.30;100848.22;4975489;28;20055;-67
2020/12/24 08:53:05;;;;;;;6.47;1.77;;;;;;;8.41;82.34;100850.00;4976020;28;20047;-67
2020/12/24 08:55:32;;;;;;;5.45;1.33;;;;;;;8.31;81.88;100861.13;4990149;28;20057;-69
2020/12/24 08:58:00;;;;;;;5.10;1.20;;;;;;;8.48;79.53;100882.56;4975820;28;20059;-66
2020/12/24 09:00:28;;;;;;;4.25;1.10;;;;;;;8.72;78.50;100877.84;4973885;28;20050;-71
2020/12/24 09:02:57;;;;;;;6.82;1.73;;;;;;;8.59;77.12;100878.59;4975958;28;20065;-65
2020/12/24 09:05:27;;;;;;;7.45;1.40;;;;;;;8.60;76.99;100902.16;4974290;28;20054;-64
2020/12/24 09:07:54;;;;;;;6.45;1.30;;;;;;;8.52;76.81;100906.41;4975949;28;20047;-64
2020/12/24 09:10:27;;;;;;;6.20;0.90;;;;;;;8.57;76.39;100909.09;4974154;28;20486;-64
2020/12/24 09:12:58;;;;;;;7.47;1.10;;;;;;;8.54;77.34;100912.41;4976227;28;20047;-65
2020/12/24 09:15:27;;;;;;;5.65;1.10;;;;;;;8.46;77.67;100926.78;4976556;28;20054;-63
2020/12/24 09:17:58;;;;;;;8.52;1.65;;;;;;;8.52;77.57;100933.03;4975450;28;20058;-64
2020/12/24 09:20:27;;;;;;;12.27;4.47;;;;;;;8.80;76.73;100935.66;4989717;28;20051;-61
2020/12/24 09:23:01;;;;;;;19.85;7.72;;;;;;;8.88;76.87;100939.66;4976095;28;20071;-62
2020/12/24 09:25:38;;;;;;;19.95;7.45;;;;;;;8.86;75.42;100953.69;4975693;28;20055;-62
2020/12/24 09:28:26;;;;;;;16.23;6.07;;;;;;;8.81;75.83;100951.03;4975402;28;20059;-61
2020/12/24 09:30:58;;;;;;;9.52;2.83;;;;;;;8.65;75.37;100960.59;4975597;28;20123;-63
2020/12/24 09:33:26;;;;;;;8.73;1.98;;;;;;;8.87;74.63;100960.81;4976224;28;20059;-62
2020/12/24 09:35:53;;;;;;;9.05;3.40;;;;;;;8.80;74.95;100968.59;4975752;28;20449;-62
2020/12/24 09:38:21;;;;;;;10.82;2.42;;;;;;;8.51;74.87;101016.50;4974470;28;20053;-61
2020/12/24 09:40:49;;;;;;;10.75;2.53;;;;;;;8.55;75.44;101010.13;4976025;28;20055;-63
2020/12/24 09:43:15;;;;;;;9.77;1.80;;;;;;;8.46;75.78;101000.09;4975734;28;20066;-63
2020/12/24 09:45:45;;;;;;;6.68;1.52;;;;;;;8.59;75.27;101005.72;4975982;28;20057;-63
2020/12/24 09:48:14;;;;;;;11.50;2.35;;;;;;;8.56;75.91;101011.75;4990724;28;20486;-63
2020/12/24 09:50:41;;;;;;;8.85;1.65;;;;;;;8.54;75.65;101024.97;4975558;28;20047;-63
2020/12/24 09:53:08;;;;;;;12.15;2.22;;;;;;;8.37;76.39;101021.88;4975192;28;20058;-64
2020/12/24 09:55:44;;;;;;;8.63;2.22;;;;;;;8.51;76.17;101020.06;4974954;28;20057;-65
2020/12/24 09:58:11;;;;;;;9.02;2.35;;;;;;;8.51;76.02;101027.47;4975514;28;20399;-63
2020/12/24 10:00:37;;;;;;;6.93;2.00;;;;;;;8.52;76.70;101037.34;4975411;28;20055;-63
2020/12/24 10:03:04;;;;;;;9.73;1.73;;;;;;;8.32;75.80;101038.41;4990262;28;20054;-64
2020/12/24 10:05:31;;;;;;;8.40;1.85;;;;;;;8.19;76.21;101040.97;4975567;28;20394;-64
2020/12/24 10:07:58;;;;;;;7.32;1.88;;;;;;;8.45;75.88;101051.44;4974703;28;20062;-66
2020/12/24 10:10:25;;;;;;;9.75;1.63;;;;;;;8.25;76.48;101050.81;4975028;28;20054;-68
2020/12/24 10:12:52;;;;;;;6.53;1.38;;;;;;;8.43;76.06;101056.41;4974214;28;20051;-67
2020/12/24 10:15:19;;;;;;;11.23;2.15;;;;;;;8.39;75.25;101057.25;4974613;28;20047;-63
2020/12/24 10:17:46;;;;;;;11.15;1.77;;;;;;;8.52;75.87;101078.53;4975996;28;20490;-63
2020/12/24 10:20:12;;;;;;;4.63;1.33;;;;;;;8.48;75.09;101071.97;4975523;28;20059;-65
2020/12/24 10:22:39;;;;;;;10.68;1.75;;;;;;;8.46;76.03;101071.44;4975079;28;20367;-63
2020/12/24 10:25:14;;;;;;;7.03;1.58;;;;;;;8.48;75.98;101094.78;4974792;28;20050;-70
2020/12/24 10:27:59;;;;;;;6.25;1.92;;;;;;;8.59;75.59;101074.34;4975070;28;20066;-61
2020/12/24 10:30:26;;;;;;;12.05;3.03;;;;;;;8.56;75.93;101077.66;4974585;28;20050;-63
2020/12/24 10:32:53;;;;;;;10.27;2.03;;;;;;;8.59;75.71;101082.59;4973503;28;20047;-63
2020/12/24 10:35:20;;;;;;;8.65;2.15;;;;;;;8.62;76.05;101075.69;4975061;28;20054;-64
2020/12/24 10:37:47;;;;;;;9.98;2.55;;;;;;;8.57;76.27;101075.72;4957538;28;20413;-63
2020/12/24 10:40:14;;;;;;;9.05;2.08;;;;;;;8.72;75.53;101081.88;4973077;28;20050;-66
2020/12/24 10:42:46;;;;;;;8.20;1.95;;;;;;;8.59;75.84;101090.00;4973919;28;20498;-62
2020/12/24 10:45:13;;;;;;;11.55;2.67;;;;;;;8.55;76.29;101083.44;4973934;28;20474;-64
2020/12/24 10:47:40;;;;;;;8.77;2.70;;;;;;;8.46;78.08;101087.91;4974655;28;20057;-64
2020/12/24 10:50:08;;;;;;;5.82;2.22;;;;;;;8.51;77.44;101102.41;4989078;28;20059;-64
2020/12/24 10:52:34;;;;;;;12.20;2.63;;;;;;;8.56;77.43;101107.06;4974362;28;20497;-64
2020/12/24 10:55:09;;;;;;;13.85;2.28;;;;;;;8.28;78.71;101111.44;4974516;28;20062;-63
2020/12/24 10:57:37;;;;;;;9.18;2.95;;;;;;;8.57;78.64;101111.44;4974425;28;20047;-64
2020/12/24 11:00:07;;;;;;;10.88;2.88;;;;;;;8.92;77.35;101105.53;4973537;28;20051;-63
2020/12/24 11:02:35;;;;;;;5.03;2.00;;;;;;;8.61;76.71;101127.03;4974041;28;20042;-63
2020/12/24 11:05:03;;;;;;;5.70;2.03;;;;;;;8.32;77.90;101128.97;4956431;28;20051;-63
2020/12/24 11:07:32;;;;;;;9.95;1.95;;;;;;;8.25;78.21;101116.66;4973992;28;20343;-62
2020/12/24 11:09:59;;;;;;;4.97;1.80;;;;;;;8.63;77.56;101126.75;4973346;28;20050;-63
2020/12/24 11:12:27;;;;;;;8.10;1.88;;;;;;;8.43;76.42;101133.25;4957017;28;20058;-63
2020/12/24 11:19:21;;;;;;;7.22;1.75;;;;;;;8.40;77.35;101139.34;4971454;28;20039;-64
2020/12/24 11:21:48;;;;;;;7.60;1.70;;;;;;;8.29;78.05;101143.25;4974194;28;20046;-65
2020/12/24 11:24:15;;;;;;;3.63;1.40;;;;;;;8.17;77.52;101137.31;4973882;28;20055;-62
2020/12/24 11:26:42;;;;;;;4.72;1.63;;;;;;;8.39;76.46;101153.31;4988636;28;20062;-64
2020/12/24 11:33:39;;;;;;;6.25;1.35;;;;;;;8.25;77.16;101155.91;4988141;28;20461;-62
2020/12/24 11:36:06;;;;;;;5.25;0.98;;;;;;;8.14;76.91;101157.09;4973551;28;20050;-72
2020/12/24 11:38:33;;;;;;;4.82;0.93;;;;;;;7.90;75.45;101167.94;4987489;28;20395;-69
2020/12/24 11:41:05;;;;;;;2.92;0.80;;;;;;;7.72;77.15;101154.09;4973377;28;20050;-70
2020/12/24 11:48:01;;;;;;;3.35;1.02;;;;;;;8.17;77.92;101161.16;4973931;28;20054;-64
2020/12/24 11:50:30;;;;;;;6.18;1.40;;;;;;;7.98;78.20;101170.06;4973406;28;20055;-73
2020/12/24 11:53:02;;;;;;;7.03;1.30;;;;;;;7.59;79.76;101173.91;4972818;28;20054;-71
2020/12/24 11:55:48;;;;;;;5.18;1.40;;;;;;;7.51;80.28;101172.59;4973322;28;20110;-68
2020/12/24 11:58:17;;;;;;;4.20;1.30;;;;;;;7.48;80.66;101178.63;4973498;28;20513;-69
2020/12/24 12:00:47;;;;;;;7.13;1.40;;;;;;;7.49;81.47;101177.53;4962696;28;20062;-72
2020/12/24 12:03:15;;;;;;;8.68;1.90;;;;;;;7.46;82.74;101180.81;4979387;28;20062;-66
2020/12/24 12:05:42;;;;;;;7.35;1.60;;;;;;;7.31;83.33;101174.59;4975934;28;20494;-64
2020/12/24 12:08:09;;;;;;;4.50;1.30;;;;;;;7.42;83.22;101181.66;4976223;28;20043;-63
2020/12/24 12:10:42;;;;;;;5.72;1.63;;;;;;;7.48;83.89;101186.03;4978694;28;20066;-69
2020/12/24 12:13:09;;;;;;;6.88;1.40;;;;;;;7.35;81.39;101214.88;4977363;28;20426;-64
2020/12/24 12:20:16;;;;;;;6.20;1.55;;;;;;;7.50;84.49;101206.56;4977172;28;20043;-64
2020/12/24 12:22:43;;;;;;;6.32;1.23;;;;;;;7.41;82.47;101202.75;4977092;28;20054;-64
2020/12/24 12:25:10;;;;;;;8.70;1.60;;;;;;;7.35;83.32;101222.25;4977044;28;20054;-66
2020/12/24 12:27:37;;;;;;;6.60;1.33;;;;;;;7.11;83.38;101211.13;4977290;28;20050;-62
2020/12/24 12:30:06;;;;;;;6.70;2.00;;;;;;;7.17;83.61;101215.47;4991652;28;20053;-69
2020/12/24 12:32:32;;;;;;;5.35;1.42;;;;;;;7.17;83.81;101231.06;4976731;28;20406;-65
2020/12/24 12:34:59;;;;;;;7.07;1.98;;;;;;;7.24;83.45;101248.88;4976839;28;20062;-69
2020/12/24 12:37:26;;;;;;;5.75;1.60;;;;;;;7.14;81.61;101245.34;4976684;28;20051;-65
2020/12/24 12:39:57;;;;;;;9.38;2.05;;;;;;;7.10;82.39;101228.63;4976676;28;20050;-66
2020/12/24 12:42:26;;;;;;;6.90;1.75;;;;;;;7.10;81.94;101236.03;4976486;28;20047;-65
2020/12/24 12:44:53;;;;;;;7.68;1.88;;;;;;;7.22;81.47;101229.13;4976407;28;20054;-70
2020/12/24 12:47:20;;;;;;;7.95;1.80;;;;;;;7.24;81.64;101237.91;4976688;28;20043;-71
2020/12/24 12:49:47;;;;;;;11.52;2.08;;;;;;;7.18;81.65;101239.03;4991203;28;20047;-69